createdAt,value
2022-08-05T00:00:52.044Z,94.04
2022-08-05T00:01:54.395Z,93.99
2022-08-05T00:02:56.765Z,94.06
2022-08-05T00:04:00.688Z,94.30
2022-08-05T00:05:05.675Z,94.32
2022-08-05T00:06:28.933Z,94.33
2022-08-05T00:07:21.830Z,94.25
2022-08-05T00:08:32.476Z,94.15
2022-08-05T00:09:20.250Z,94.06
2022-08-05T00:10:27.105Z,94.21
2022-08-05T00:11:34.591Z,94.28
2022-08-05T00:12:32.362Z,94.32
2022-08-05T00:13:39.221Z,94.21
2022-08-05T00:14:41.030Z,94.26
2022-08-05T00:15:55.496Z,94.30
2022-08-05T00:16:53.755Z,94.14
2022-08-05T00:17:51.774Z,93.89
2022-08-05T00:18:54.447Z,93.58
2022-08-05T00:20:02.527Z,93.38
2022-08-05T00:21:00.699Z,93.33
2022-08-05T00:22:04.369Z,93.46
2022-08-05T00:23:12.943Z,93.40
2022-08-05T00:24:16.369Z,93.55
2022-08-05T00:25:17.014Z,94.04
2022-08-05T00:26:20.689Z,94.18
2022-08-05T00:27:35.766Z,94.31
2022-08-05T00:28:29.617Z,94.41
2022-08-05T00:29:38.179Z,94.22
2022-08-05T00:30:36.401Z,94.18
2022-08-05T00:31:53.156Z,94.26
2022-08-05T00:32:45.324Z,94.17
2022-08-05T00:34:56.994Z,93.82
2022-08-05T00:35:06.826Z,93.80
2022-08-05T00:36:16.487Z,93.66
2022-08-05T00:37:10.726Z,93.76
2022-08-05T00:38:05.827Z,93.86
2022-08-05T00:39:13.708Z,93.80
2022-08-05T00:40:17.866Z,93.94
2022-08-05T00:41:51.812Z,93.76
2022-08-05T00:42:38.773Z,93.50
2022-08-05T00:43:47.157Z,93.48
2022-08-05T00:44:44.786Z,93.49
2022-08-05T00:45:47.280Z,93.51
2022-08-05T00:46:54.183Z,93.36
2022-08-05T00:48:04.905Z,93.24
2022-08-05T00:48:58.150Z,93.30
2022-08-05T00:50:00.539Z,93.20
2022-08-05T00:51:08.999Z,93.23
2022-08-05T00:52:06.645Z,93.40
2022-08-05T00:53:44.745Z,93.65
2022-08-05T00:54:14.138Z,93.72
2022-08-05T00:55:18.968Z,93.69
2022-08-05T00:56:23.090Z,93.74
2022-08-05T00:57:38.399Z,93.79
2022-08-05T00:58:29.930Z,93.81
2022-08-05T00:59:34.487Z,93.84
2022-08-05T01:00:36.038Z,93.92
2022-08-05T01:01:42.645Z,93.85
2022-08-05T01:02:44.569Z,93.92
2022-08-05T01:03:50.073Z,93.80
2022-08-05T01:04:50.960Z,94.47
2022-08-05T01:05:54.610Z,94.87
2022-08-05T01:06:59.177Z,95.10
2022-08-05T01:08:41.801Z,95.19
2022-08-05T01:09:05.563Z,95.21
2022-08-05T01:10:12.074Z,95.33
2022-08-05T01:11:22.182Z,95.48
2022-08-05T01:12:29.812Z,95.61
2022-08-05T01:13:58.700Z,95.86
2022-08-05T01:15:35.037Z,96.12
2022-08-05T01:16:38.861Z,96.36
2022-08-05T01:17:53.764Z,96.67
2022-08-05T01:18:58.435Z,97.29
2022-08-05T01:20:15.794Z,97.37
2022-08-05T01:21:43.613Z,97.60
2022-08-05T01:23:24.784Z,97.67
2022-08-05T01:24:48.968Z,97.89
2022-08-05T01:26:18.558Z,97.99
2022-08-05T01:27:50.636Z,98.14
2022-08-05T01:29:00.612Z,97.78
2022-08-05T01:30:17.778Z,98.11
2022-08-05T01:31:16.539Z,97.93
2022-08-05T01:32:22.842Z,97.93
2022-08-05T01:33:28.481Z,98.06
2022-08-05T01:34:48.403Z,98.32
2022-08-05T01:35:54.967Z,98.30
2022-08-05T01:37:25.009Z,98.24
2022-08-05T01:38:29.958Z,98.32
2022-08-05T01:39:47.033Z,98.20
2022-08-05T01:40:40.802Z,98.32
2022-08-05T01:41:45.814Z,98.05
2022-08-05T01:42:52.496Z,97.79
2022-08-05T01:43:55.839Z,97.44
2022-08-05T01:45:02.236Z,97.30
2022-08-05T01:46:07.474Z,97.37
2022-08-05T01:47:11.938Z,96.72
2022-08-05T01:48:17.813Z,96.50
2022-08-05T01:49:24.893Z,96.37
2022-08-05T01:50:33.504Z,96.07
2022-08-05T01:51:38.796Z,95.97
2022-08-05T01:52:44.128Z,95.80
2022-08-05T01:53:57.792Z,95.51
2022-08-05T01:55:00.515Z,95.49
2022-08-05T01:56:04.328Z,95.46
2022-08-05T01:58:10.132Z,95.48
2022-08-05T01:58:16.075Z,95.22
2022-08-05T01:59:23.004Z,95.09
2022-08-05T02:00:29.857Z,95.23
2022-08-05T02:01:39.960Z,95.21
2022-08-05T02:02:53.636Z,95.21
2022-08-05T02:03:52.994Z,95.09
2022-08-05T02:05:00.911Z,94.81
2022-08-05T02:06:33.492Z,94.60
2022-08-05T02:07:12.176Z,94.50
2022-08-05T02:08:28.956Z,94.56
2022-08-05T02:09:21.717Z,94.70
2022-08-05T02:10:28.765Z,94.67
2022-08-05T02:11:52.154Z,94.78
2022-08-05T02:12:57.554Z,94.64
2022-08-05T02:14:04.243Z,94.44
2022-08-05T02:15:15.546Z,94.18
2022-08-05T02:16:27.610Z,94.34
2022-08-05T02:18:32.992Z,94.41
2022-08-05T02:18:44.920Z,94.18
2022-08-05T02:19:52.214Z,94.13
2022-08-05T02:21:15.365Z,93.76
2022-08-05T02:22:29.995Z,94.44
2022-08-05T02:23:36.899Z,94.61
2022-08-05T02:24:44.426Z,94.65
2022-08-05T02:25:50.685Z,94.56
2022-08-05T02:26:56.578Z,94.53
2022-08-05T02:28:00.617Z,94.60
2022-08-05T02:29:05.608Z,94.03
2022-08-05T02:30:12.605Z,94.01
2022-08-05T02:31:21.291Z,93.55
2022-08-05T02:32:30.564Z,92.89
2022-08-05T02:33:38.105Z,92.94
2022-08-05T02:34:39.185Z,93.18
2022-08-05T02:35:50.977Z,93.33
2022-08-05T02:36:52.680Z,93.25
2022-08-05T02:37:59.108Z,92.93
2022-08-05T02:39:08.790Z,92.77
2022-08-05T02:40:10.423Z,92.66
2022-08-05T02:41:17.256Z,92.71
2022-08-05T02:42:22.527Z,92.68
2022-08-05T02:43:25.845Z,92.57
2022-08-05T02:44:31.063Z,92.49
2022-08-05T02:45:51.564Z,92.31
2022-08-05T02:46:53.376Z,92.20
2022-08-05T02:48:07.532Z,91.89
2022-08-05T02:48:54.396Z,91.82
2022-08-05T02:49:57.412Z,91.79
2022-08-05T02:51:02.950Z,91.52
2022-08-05T02:52:08.647Z,91.31
2022-08-05T02:53:18.771Z,91.18
2022-08-05T02:54:35.881Z,91.11
2022-08-05T02:55:52.212Z,90.91
2022-08-05T02:56:29.607Z,90.71
2022-08-05T02:58:11.319Z,90.36
2022-08-05T02:58:43.610Z,90.28
2022-08-05T02:59:50.277Z,90.09
2022-08-05T03:00:53.805Z,89.78
2022-08-05T03:01:57.483Z,89.61
2022-08-05T03:03:01.335Z,89.46
2022-08-05T03:04:13.925Z,89.29
2022-08-05T03:05:12.293Z,89.03
2022-08-05T03:06:54.111Z,88.88
2022-08-05T03:07:40.627Z,88.74
2022-08-05T03:08:27.077Z,88.55
2022-08-05T03:09:37.687Z,88.42
2022-08-05T03:10:35.030Z,88.54
2022-08-05T03:11:56.215Z,88.63
2022-08-05T03:12:44.880Z,88.39
2022-08-05T03:13:51.438Z,88.21
2022-08-05T03:14:54.123Z,88.29
2022-08-05T03:15:58.100Z,88.45
2022-08-05T03:17:00.890Z,88.56
2022-08-05T03:18:03.208Z,88.67
2022-08-05T03:19:17.179Z,88.54
2022-08-05T03:20:11.536Z,88.49
2022-08-05T03:21:16.459Z,88.75
2022-08-05T03:22:32.242Z,88.77
2022-08-05T03:23:24.267Z,88.96
2022-08-05T03:24:29.920Z,89.22
2022-08-05T03:26:05.120Z,89.29
2022-08-05T03:26:36.968Z,89.31
2022-08-05T03:27:39.409Z,89.08
2022-08-05T03:28:43.446Z,89.06
2022-08-05T03:30:07.394Z,88.99
2022-08-05T03:30:50.868Z,89.03
2022-08-05T03:31:57.107Z,89.04
2022-08-05T03:32:59.962Z,89.08
2022-08-05T03:34:04.059Z,89.22
2022-08-05T03:35:09.023Z,89.37
2022-08-05T03:36:12.298Z,89.81
2022-08-05T03:37:14.757Z,89.81
2022-08-05T03:38:17.188Z,89.93
2022-08-05T03:39:27.013Z,89.95
2022-08-05T03:40:31.963Z,89.96
2022-08-05T03:41:32.958Z,90.02
2022-08-05T03:42:52.102Z,90.07
2022-08-05T03:44:08.731Z,90.33
2022-08-05T03:44:42.434Z,90.46
2022-08-05T03:45:57.682Z,90.41
2022-08-05T03:46:49.223Z,91.53
2022-08-05T03:47:51.479Z,91.53
2022-08-05T03:48:54.242Z,91.58
2022-08-05T03:49:57.311Z,91.69
2022-08-05T03:52:38.509Z,91.70
2022-08-05T03:52:38.841Z,91.71
2022-08-05T03:55:06.979Z,91.53
2022-08-05T03:55:53.477Z,91.56
2022-08-05T03:56:11.591Z,91.44
2022-08-05T03:57:00.657Z,91.38
2022-08-05T03:58:06.406Z,90.96
2022-08-05T03:59:20.355Z,90.82
2022-08-05T04:00:24.818Z,90.39
2022-08-05T04:01:32.523Z,90.44
2022-08-05T04:02:45.231Z,90.40
2022-08-05T04:04:05.371Z,90.18
2022-08-05T04:04:51.338Z,89.76
2022-08-05T04:05:57.647Z,89.86
2022-08-05T04:07:01.276Z,90.00
2022-08-05T04:08:30.127Z,90.27
2022-08-05T04:09:14.096Z,90.35
2022-08-05T04:10:20.174Z,90.35
2022-08-05T04:11:22.967Z,90.16
2022-08-05T04:12:25.624Z,89.77
2022-08-05T04:13:50.590Z,89.60
2022-08-05T04:14:33.624Z,89.46
2022-08-05T04:15:36.698Z,88.89
2022-08-05T04:16:39.282Z,89.17
2022-08-05T04:17:56.308Z,89.41
2022-08-05T04:18:47.590Z,89.38
2022-08-05T04:19:54.228Z,89.46
2022-08-05T04:20:56.671Z,89.24
2022-08-05T04:22:09.131Z,89.03
2022-08-05T04:23:03.900Z,89.00
2022-08-05T04:24:08.917Z,88.96
2022-08-05T04:25:11.045Z,88.90
2022-08-05T04:26:14.251Z,88.30
2022-08-05T04:27:16.640Z,88.09
2022-08-05T04:28:21.405Z,88.24
2022-08-05T04:29:27.249Z,88.14
2022-08-05T04:30:29.924Z,88.15
2022-08-05T04:31:38.800Z,88.27
2022-08-05T04:32:39.574Z,88.22
2022-08-05T04:34:17.344Z,88.17
2022-08-05T04:34:47.730Z,88.33
2022-08-05T04:36:11.364Z,88.07
2022-08-05T04:36:54.104Z,88.33
2022-08-05T04:38:01.405Z,88.43
2022-08-05T04:39:00.580Z,88.32
2022-08-05T04:40:03.732Z,88.19
2022-08-05T04:41:05.955Z,87.97
2022-08-05T04:42:09.953Z,87.72
2022-08-05T04:43:16.688Z,87.25
2022-08-05T04:44:21.255Z,86.79
2022-08-05T04:45:48.497Z,86.50
2022-08-05T04:46:28.300Z,86.16
2022-08-05T04:47:31.277Z,85.71
2022-08-05T04:48:36.347Z,85.28
2022-08-05T04:50:02.685Z,85.19
2022-08-05T04:51:02.717Z,85.38
2022-08-05T04:51:49.334Z,85.46
2022-08-05T04:52:53.436Z,85.28
2022-08-05T04:53:56.763Z,84.72
2022-08-05T04:54:58.956Z,84.54
2022-08-05T04:56:33.068Z,84.06
2022-08-05T04:57:07.632Z,83.63
2022-08-05T04:58:12.510Z,83.45
2022-08-05T04:59:24.315Z,83.61
2022-08-05T05:00:19.493Z,83.56
2022-08-05T05:02:05.471Z,83.53
2022-08-05T05:02:37.345Z,83.47
2022-08-05T05:03:41.694Z,83.27
2022-08-05T05:04:38.241Z,83.27
2022-08-05T05:06:39.381Z,83.51
2022-08-05T05:06:51.924Z,83.60
2022-08-05T05:07:56.221Z,83.46
2022-08-05T05:08:53.234Z,83.35
2022-08-05T05:09:57.228Z,83.48
2022-08-05T05:10:59.315Z,83.34
2022-08-05T05:12:02.956Z,83.52
2022-08-05T05:13:05.238Z,83.64
2022-08-05T05:14:08.677Z,83.76
2022-08-05T05:15:11.108Z,83.98
2022-08-05T05:16:13.895Z,84.57
2022-08-05T05:17:23.307Z,84.63
2022-08-05T05:18:31.264Z,84.79
2022-08-05T05:19:36.202Z,84.72
2022-08-05T05:20:31.730Z,84.44
2022-08-05T05:21:33.964Z,84.56
2022-08-05T05:22:40.987Z,84.69
2022-08-05T05:24:04.075Z,84.75
2022-08-05T05:24:57.302Z,84.92
2022-08-05T05:25:53.087Z,84.81
2022-08-05T05:26:56.836Z,84.60
2022-08-05T05:27:59.206Z,84.45
2022-08-05T05:29:02.169Z,84.44
2022-08-05T05:30:06.277Z,84.36
2022-08-05T05:31:10.285Z,84.44
2022-08-05T05:32:15.625Z,84.24
2022-08-05T05:33:17.561Z,84.28
2022-08-05T05:34:26.593Z,84.33
2022-08-05T05:35:24.035Z,84.33
2022-08-05T05:36:28.794Z,83.77
2022-08-05T05:37:40.539Z,83.81
2022-08-05T05:38:35.627Z,83.91
2022-08-05T05:39:37.891Z,83.95
2022-08-05T05:40:47.936Z,83.87
2022-08-05T05:41:45.491Z,83.86
2022-08-05T05:42:50.285Z,83.96
2022-08-05T05:43:57.598Z,83.93
2022-08-05T05:44:59.439Z,83.84
2022-08-05T05:46:01.302Z,83.71
2022-08-05T05:47:21.876Z,83.64
2022-08-05T05:48:09.037Z,83.79
2022-08-05T05:49:22.677Z,83.92
2022-08-05T05:50:19.745Z,83.89
2022-08-05T05:51:23.390Z,84.01
2022-08-05T05:52:29.924Z,84.13
2022-08-05T05:53:29.699Z,84.09
2022-08-05T05:54:35.108Z,83.96
2022-08-05T05:55:51.909Z,83.57
2022-08-05T05:56:42.473Z,83.50
2022-08-05T05:57:52.601Z,83.66
2022-08-05T05:58:51.326Z,83.79
2022-08-05T05:59:55.240Z,84.28
2022-08-05T06:01:13.093Z,85.18
2022-08-05T06:02:04.314Z,85.65
2022-08-05T06:03:39.786Z,85.79
2022-08-05T06:04:12.724Z,86.10
2022-08-05T06:05:17.219Z,86.09
2022-08-05T06:06:20.039Z,85.95
2022-08-05T06:07:24.483Z,85.95
2022-08-05T06:08:31.490Z,85.62
2022-08-05T06:09:52.612Z,85.87
2022-08-05T06:10:52.412Z,85.72
2022-08-05T06:11:41.689Z,85.56
2022-08-05T06:12:46.918Z,85.05
2022-08-05T06:13:50.401Z,85.07
2022-08-05T06:14:53.377Z,84.96
2022-08-05T06:16:30.749Z,84.57
2022-08-05T06:17:24.567Z,83.91
2022-08-05T06:18:06.415Z,84.00
2022-08-05T06:19:09.696Z,83.45
2022-08-05T06:20:18.862Z,83.05
2022-08-05T06:21:18.953Z,82.99
2022-08-05T06:22:26.708Z,83.05
2022-08-05T06:23:32.230Z,82.96
2022-08-05T06:24:33.542Z,82.90
2022-08-05T06:26:12.258Z,82.69
2022-08-05T06:26:51.390Z,82.45
2022-08-05T06:28:10.966Z,82.40
2022-08-05T06:28:49.580Z,82.42
2022-08-05T06:30:05.995Z,82.39
2022-08-05T06:30:56.531Z,82.41
2022-08-05T06:31:59.438Z,82.66
2022-08-05T06:33:01.999Z,82.88
2022-08-05T06:34:07.156Z,82.83
2022-08-05T06:35:15.258Z,83.30
2022-08-05T06:36:13.695Z,83.50
2022-08-05T06:37:17.623Z,83.55
2022-08-05T06:38:36.013Z,83.54
2022-08-05T06:39:27.891Z,83.60
2022-08-05T06:40:32.653Z,83.19
2022-08-05T06:41:34.743Z,83.61
2022-08-05T06:42:39.923Z,84.39
2022-08-05T06:43:58.653Z,84.90
2022-08-05T06:44:49.240Z,85.11
2022-08-05T06:46:06.376Z,85.06
2022-08-05T06:46:56.565Z,85.08
2022-08-05T06:48:36.686Z,84.82
2022-08-05T06:49:05.891Z,84.61
2022-08-05T06:50:10.040Z,84.30
2022-08-05T06:51:23.908Z,84.09
2022-08-05T06:52:36.823Z,84.23
2022-08-05T06:53:27.807Z,84.40
2022-08-05T06:54:26.412Z,84.50
2022-08-05T06:55:30.407Z,84.51
2022-08-05T06:56:35.242Z,84.58
2022-08-05T06:58:03.259Z,84.52
2022-08-05T06:58:43.386Z,84.49
2022-08-05T06:59:48.478Z,84.06
2022-08-05T07:00:51.290Z,84.06
2022-08-05T07:01:53.577Z,83.70
2022-08-05T07:02:55.751Z,83.80
2022-08-05T07:03:58.007Z,83.48
2022-08-05T07:05:02.833Z,83.29
2022-08-05T07:06:14.459Z,83.30
2022-08-05T07:07:11.843Z,83.15
2022-08-05T07:08:16.388Z,83.14
2022-08-05T07:09:18.727Z,82.84
2022-08-05T07:10:23.038Z,83.08
2022-08-05T07:11:26.920Z,83.04
2022-08-05T07:12:28.941Z,83.06
2022-08-05T07:13:59.589Z,82.63
2022-08-05T07:14:38.851Z,82.53
2022-08-05T07:16:00.938Z,82.24
2022-08-05T07:17:57.054Z,82.10
2022-08-05T07:18:01.492Z,81.71
2022-08-05T07:18:53.924Z,81.71
2022-08-05T07:21:04.632Z,80.76
2022-08-05T07:22:05.711Z,80.56
2022-08-05T07:23:13.000Z,80.20
2022-08-05T07:24:14.841Z,79.97
2022-08-05T07:25:54.018Z,80.00
2022-08-05T07:26:24.964Z,79.79
2022-08-05T07:27:27.394Z,79.97
2022-08-05T07:28:29.512Z,80.01
2022-08-05T07:30:24.331Z,79.90
2022-08-05T07:30:39.149Z,79.82
2022-08-05T07:31:55.091Z,79.77
2022-08-05T07:32:46.028Z,79.71
2022-08-05T07:33:50.038Z,79.56
2022-08-05T07:34:57.742Z,79.38
2022-08-05T07:36:19.543Z,79.42
2022-08-05T07:37:03.258Z,79.42
2022-08-05T07:38:05.536Z,79.41
2022-08-05T07:39:24.857Z,79.34
2022-08-05T07:40:26.733Z,79.18
2022-08-05T07:42:13.794Z,79.35
2022-08-05T07:42:31.779Z,79.53
2022-08-05T07:43:31.982Z,79.31
2022-08-05T07:44:37.026Z,79.08
2022-08-05T07:45:56.682Z,79.04
2022-08-05T07:46:49.342Z,78.79
2022-08-05T07:47:52.380Z,78.90
2022-08-05T07:49:01.471Z,79.32
2022-08-05T07:50:06.664Z,79.82
2022-08-05T07:51:08.579Z,79.93
2022-08-05T07:52:12.154Z,79.96
2022-08-05T07:53:14.634Z,80.08
2022-08-05T07:54:16.753Z,80.20
2022-08-05T07:56:05.813Z,80.24
2022-08-05T07:57:00.692Z,80.19
2022-08-05T07:57:52.286Z,80.27
2022-08-05T07:58:58.564Z,80.27
2022-08-05T07:59:40.055Z,79.81
2022-08-05T08:00:41.557Z,79.28
2022-08-05T08:01:52.328Z,79.00
2022-08-05T08:03:13.932Z,78.58
2022-08-05T08:03:52.754Z,78.71
2022-08-05T08:04:55.654Z,78.31
2022-08-05T08:05:57.745Z,78.25
2022-08-05T08:07:01.613Z,78.03
2022-08-05T08:08:05.642Z,77.17
2022-08-05T08:09:09.630Z,76.70
2022-08-05T08:10:12.597Z,76.63
2022-08-05T08:11:16.780Z,76.12
2022-08-05T08:12:35.035Z,75.63
2022-08-05T08:13:28.963Z,75.82
2022-08-05T08:14:29.515Z,75.51
2022-08-05T08:16:50.015Z,75.72
2022-08-05T08:16:51.056Z,75.71
2022-08-05T08:17:49.789Z,75.77
2022-08-05T08:18:51.250Z,75.88
2022-08-05T08:20:43.838Z,75.79
2022-08-05T08:21:03.814Z,75.99
2022-08-05T08:22:06.551Z,75.78
2022-08-05T08:23:59.976Z,76.05
2022-08-05T08:24:15.108Z,75.36
2022-08-05T08:25:17.965Z,75.32
2022-08-05T08:26:26.926Z,75.26
2022-08-05T08:27:35.752Z,75.18
2022-08-05T08:28:36.104Z,75.21
2022-08-05T08:30:03.621Z,75.45
2022-08-05T08:30:47.850Z,75.17
2022-08-05T08:31:46.576Z,75.16
2022-08-05T08:32:51.617Z,74.92
2022-08-05T08:33:55.789Z,74.67
2022-08-05T08:34:58.451Z,73.86
2022-08-05T08:36:29.560Z,73.80
2022-08-05T08:37:06.198Z,73.61
2022-08-05T08:38:11.867Z,73.64
2022-08-05T08:39:15.435Z,73.59
2022-08-05T08:40:18.342Z,73.46
2022-08-05T08:41:26.145Z,73.23
2022-08-05T08:42:34.247Z,72.67
2022-08-05T08:45:17.009Z,72.01
2022-08-05T08:45:18.560Z,72.73
2022-08-05T08:45:49.036Z,71.85
2022-08-05T08:46:53.963Z,71.95
2022-08-05T08:48:07.080Z,71.61
2022-08-05T08:50:22.457Z,71.19
2022-08-05T08:50:30.469Z,71.43
2022-08-05T08:52:02.195Z,71.41
2022-08-05T08:52:29.296Z,71.61
2022-08-05T08:53:37.256Z,71.97
2022-08-05T08:54:42.111Z,71.98
2022-08-05T08:56:03.919Z,72.31
2022-08-05T08:56:49.860Z,71.86
2022-08-05T08:57:58.280Z,72.37
2022-08-05T08:58:57.526Z,72.44
2022-08-05T09:00:00.645Z,72.30
2022-08-05T09:01:11.079Z,72.62
2022-08-05T09:02:12.794Z,72.86
2022-08-05T09:03:16.298Z,72.90
2022-08-05T09:04:20.112Z,72.90
2022-08-05T09:05:38.482Z,72.26
2022-08-05T09:06:30.609Z,71.86
2022-08-05T09:07:39.381Z,71.96
2022-08-05T09:08:40.428Z,71.75
2022-08-05T09:09:42.412Z,71.27
2022-08-05T09:10:46.920Z,70.39
2022-08-05T09:11:51.051Z,69.86
2022-08-05T09:12:54.112Z,69.97
2022-08-05T09:14:01.046Z,70.22
2022-08-05T09:15:05.823Z,70.41
2022-08-05T09:16:16.752Z,70.42
2022-08-05T09:17:40.793Z,70.23
2022-08-05T09:18:19.633Z,70.01
2022-08-05T09:19:21.869Z,70.07
2022-08-05T09:20:37.924Z,69.66
2022-08-05T09:22:23.143Z,69.80
2022-08-05T09:23:07.569Z,70.22
2022-08-05T09:24:10.205Z,69.83
2022-08-05T09:25:23.883Z,70.62
2022-08-05T09:26:22.340Z,70.45
2022-08-05T09:28:03.848Z,70.65
2022-08-05T09:28:42.005Z,70.45
2022-08-05T09:29:47.596Z,70.94
2022-08-05T09:31:03.254Z,70.99
2022-08-05T09:32:40.632Z,71.45
2022-08-05T09:33:15.384Z,71.68
2022-08-05T09:34:19.006Z,71.66
2022-08-05T09:35:27.056Z,70.94
2022-08-05T09:36:54.726Z,71.17
2022-08-05T09:38:16.164Z,70.95
2022-08-05T09:39:18.154Z,71.05
2022-08-05T09:40:11.701Z,71.17
2022-08-05T09:41:16.224Z,71.52
2022-08-05T09:42:23.608Z,72.13
2022-08-05T09:43:41.087Z,72.04
2022-08-05T09:44:40.121Z,71.76
2022-08-05T09:46:06.959Z,71.66
2022-08-05T09:46:51.751Z,72.03
2022-08-05T09:47:55.813Z,72.29
2022-08-05T09:49:08.138Z,71.80
2022-08-05T09:50:03.497Z,71.84
2022-08-05T09:51:14.909Z,71.72
2022-08-05T09:52:27.074Z,71.44
2022-08-05T09:53:53.929Z,71.28
2022-08-05T09:54:34.898Z,70.33
2022-08-05T09:55:57.653Z,70.71
2022-08-05T09:56:51.401Z,70.16
2022-08-05T09:57:47.007Z,70.12
2022-08-05T09:59:01.122Z,70.12
2022-08-05T10:00:17.753Z,69.65
2022-08-05T10:01:22.458Z,69.22
2022-08-05T10:02:34.641Z,69.47
2022-08-05T10:03:56.750Z,69.49
2022-08-05T10:04:41.368Z,69.51
2022-08-05T10:05:44.604Z,69.10
2022-08-05T10:06:58.944Z,68.94
2022-08-05T10:08:35.913Z,68.78
2022-08-05T10:09:27.593Z,69.02
2022-08-05T10:10:28.266Z,69.76
2022-08-05T10:11:31.228Z,70.60
2022-08-05T10:12:41.057Z,71.74
2022-08-05T10:13:48.140Z,72.13
2022-08-05T10:14:54.402Z,72.58
2022-08-05T10:15:56.557Z,72.55
2022-08-05T10:17:39.826Z,72.39
2022-08-05T10:18:20.731Z,72.50
2022-08-05T10:20:02.708Z,72.17
2022-08-05T10:20:35.386Z,71.91
2022-08-05T10:21:40.136Z,71.72
2022-08-05T10:22:48.865Z,71.04
2022-08-05T10:23:59.688Z,70.18
2022-08-05T10:24:51.288Z,69.16
2022-08-05T10:25:55.910Z,69.52
2022-08-05T10:27:00.593Z,69.56
2022-08-05T10:28:16.818Z,69.14
2022-08-05T10:29:09.336Z,68.62
2022-08-05T10:31:20.867Z,68.47
2022-08-05T10:32:53.121Z,68.65
2022-08-05T10:32:53.683Z,68.06
2022-08-05T10:33:28.910Z,67.74
2022-08-05T10:34:32.147Z,67.98
2022-08-05T10:35:40.618Z,66.93
2022-08-05T10:36:41.279Z,67.36
2022-08-05T10:37:45.269Z,66.28
2022-08-05T10:38:51.297Z,66.35
2022-08-05T10:39:59.275Z,65.86
2022-08-05T10:41:05.576Z,66.18
2022-08-05T10:42:15.365Z,65.79
2022-08-05T10:43:46.295Z,66.17
2022-08-05T10:44:50.905Z,66.16
2022-08-05T10:45:55.979Z,66.31
2022-08-05T10:47:03.972Z,66.45
2022-08-05T10:48:36.062Z,65.97
2022-08-05T10:49:48.949Z,65.87
2022-08-05T10:51:03.286Z,65.87
2022-08-05T10:52:19.889Z,65.80
2022-08-05T10:53:14.928Z,65.57
2022-08-05T10:54:28.444Z,65.90
2022-08-05T10:55:25.081Z,65.86
2022-08-05T10:56:29.910Z,65.78
2022-08-05T10:57:33.881Z,65.21
2022-08-05T10:58:50.656Z,65.12
2022-08-05T11:00:02.517Z,65.02
2022-08-05T11:00:55.052Z,64.34
2022-08-05T11:02:14.532Z,64.62
2022-08-05T11:03:25.285Z,63.98
2022-08-05T11:04:22.885Z,63.19
2022-08-05T11:05:29.229Z,63.16
2022-08-05T11:06:33.096Z,62.73
2022-08-05T11:08:01.305Z,63.12
2022-08-05T11:09:01.414Z,63.12
2022-08-05T11:10:09.908Z,63.52
2022-08-05T11:11:41.984Z,61.92
2022-08-05T11:12:42.589Z,62.72
2022-08-05T11:13:57.706Z,62.98
2022-08-05T11:15:21.778Z,63.59
2022-08-05T11:16:47.962Z,64.13
2022-08-05T11:17:58.985Z,64.72
2022-08-05T11:18:34.859Z,65.21
2022-08-05T11:20:16.720Z,64.83
2022-08-05T11:20:46.371Z,64.82
2022-08-05T11:21:49.696Z,64.17
2022-08-05T11:22:53.918Z,64.17
2022-08-05T11:24:04.787Z,63.96
2022-08-05T11:26:05.669Z,62.72
2022-08-05T11:26:43.415Z,62.83
2022-08-05T11:27:51.821Z,62.42
2022-08-05T11:28:54.419Z,61.89
2022-08-05T11:30:00.360Z,61.53
2022-08-05T11:31:08.758Z,60.67
2022-08-05T11:32:29.833Z,60.68
2022-08-05T11:33:46.322Z,61.45
2022-08-05T11:34:50.737Z,61.10
2022-08-05T11:36:07.858Z,60.64
2022-08-05T11:36:58.945Z,60.42
2022-08-05T11:38:28.358Z,59.78
2022-08-05T11:39:07.888Z,60.22
2022-08-05T11:40:11.583Z,61.24
2022-08-05T11:41:54.811Z,60.77
2022-08-05T11:42:28.107Z,61.44
2022-08-05T11:44:04.644Z,61.36
2022-08-05T11:44:52.957Z,62.54
2022-08-05T11:46:23.439Z,62.50
2022-08-05T11:46:58.086Z,61.36
2022-08-05T11:47:58.710Z,60.45
2022-08-05T11:49:02.613Z,60.24
2022-08-05T11:50:05.902Z,60.61
2022-08-05T11:51:08.743Z,59.78
2022-08-05T11:52:13.875Z,59.75
2022-08-05T11:53:18.704Z,59.02
2022-08-05T11:54:33.143Z,56.68
2022-08-05T11:55:36.301Z,56.68
2022-08-05T11:56:52.249Z,57.44
2022-08-05T11:58:09.998Z,56.36
2022-08-05T11:58:58.613Z,56.18
2022-08-05T12:00:00.743Z,56.50
2022-08-05T12:01:10.519Z,56.63
2022-08-05T12:02:29.790Z,56.09
2022-08-05T12:03:28.548Z,56.67
2022-08-05T12:04:26.976Z,57.25
2022-08-05T12:05:36.080Z,56.23
2022-08-05T12:06:36.363Z,55.65
2022-08-05T12:08:07.901Z,56.56
2022-08-05T12:08:54.142Z,55.46
2022-08-05T12:10:04.415Z,55.32
2022-08-05T12:11:06.451Z,56.16
2022-08-05T12:12:08.839Z,57.23
2022-08-05T12:13:17.485Z,57.46
2022-08-05T12:14:18.714Z,57.28
2022-08-05T12:15:38.353Z,56.54
2022-08-05T12:16:27.976Z,56.86
2022-08-05T12:18:04.164Z,56.53
2022-08-05T12:18:39.612Z,55.80
2022-08-05T12:20:27.852Z,55.46
2022-08-05T12:20:54.542Z,53.72
2022-08-05T12:21:57.719Z,54.36
2022-08-05T12:23:11.281Z,53.38
2022-08-05T12:24:20.152Z,52.57
2022-08-05T12:25:28.227Z,52.27
2022-08-05T12:26:36.741Z,52.86
2022-08-05T12:27:52.757Z,52.89
2022-08-05T12:28:43.325Z,52.53
2022-08-05T12:30:01.249Z,51.91
2022-08-05T12:31:06.681Z,51.79
2022-08-05T12:32:09.719Z,52.10
2022-08-05T12:33:27.102Z,52.68
2022-08-05T12:34:20.444Z,53.59
2022-08-05T12:35:22.899Z,52.58
2022-08-05T12:36:28.708Z,52.90
2022-08-05T12:37:31.905Z,53.32
2022-08-05T12:38:39.659Z,52.84
2022-08-05T12:39:42.873Z,52.47
2022-08-05T12:40:46.393Z,52.60
2022-08-05T12:41:58.000Z,52.44
2022-08-05T12:43:00.001Z,52.31
2022-08-05T12:44:11.577Z,52.50
2022-08-05T12:45:13.745Z,52.88
2022-08-05T12:46:29.060Z,52.49
2022-08-05T12:47:31.576Z,53.49
2022-08-05T12:48:39.831Z,52.21
2022-08-05T12:50:04.374Z,53.25
2022-08-05T12:52:09.971Z,53.62
2022-08-05T12:52:23.788Z,54.00
2022-08-05T12:53:37.099Z,53.28
2022-08-05T12:54:32.559Z,53.37
2022-08-05T12:55:36.471Z,53.17
2022-08-05T12:56:42.916Z,52.89
2022-08-05T12:58:49.251Z,52.99
2022-08-05T12:59:21.116Z,52.81
2022-08-05T13:02:02.435Z,52.83
2022-08-05T13:02:02.520Z,51.75
2022-08-05T13:02:36.286Z,51.49
2022-08-05T13:03:42.013Z,51.88
2022-08-05T13:04:52.531Z,52.09
2022-08-05T13:05:50.048Z,51.08
2022-08-05T13:06:52.905Z,51.15
2022-08-05T13:07:59.886Z,48.77
2022-08-05T13:09:10.527Z,48.26
2022-08-05T13:10:20.139Z,48.57
2022-08-05T13:11:47.045Z,47.18
2022-08-05T13:12:28.354Z,47.83
2022-08-05T13:14:05.713Z,47.94
2022-08-05T13:14:37.538Z,47.81
2022-08-05T13:15:50.380Z,47.96
2022-08-05T13:16:49.348Z,48.97
2022-08-05T13:17:54.511Z,48.94
2022-08-05T13:19:02.104Z,49.63
2022-08-05T13:20:12.507Z,50.25
2022-08-05T13:21:17.218Z,50.87
2022-08-05T13:22:29.717Z,51.35
2022-08-05T13:23:26.587Z,50.31
2022-08-05T13:24:51.240Z,50.21
2022-08-05T13:25:52.283Z,50.08
2022-08-05T13:26:38.493Z,49.06
2022-08-05T13:27:54.170Z,48.34
2022-08-05T13:28:56.428Z,47.84
2022-08-05T13:30:32.694Z,47.95
2022-08-05T13:31:13.995Z,47.08
2022-08-05T13:32:08.082Z,46.92
2022-08-05T13:33:14.173Z,46.06
2022-08-05T13:34:24.831Z,46.27
2022-08-05T13:35:26.282Z,47.04
2022-08-05T13:36:26.086Z,46.98
2022-08-05T13:37:34.951Z,46.56
2022-08-05T13:38:42.638Z,46.96
2022-08-05T13:40:15.116Z,46.73
2022-08-05T13:40:52.008Z,47.39
2022-08-05T13:41:52.009Z,48.03
2022-08-05T13:42:56.840Z,48.47
2022-08-05T13:43:59.100Z,48.40
2022-08-05T13:45:02.293Z,48.99
2022-08-05T13:46:04.439Z,49.17
2022-08-05T13:47:09.023Z,49.17
2022-08-05T13:48:58.457Z,48.59
2022-08-05T13:49:16.221Z,47.90
2022-08-05T13:50:19.729Z,48.48
2022-08-05T13:51:36.422Z,47.91
2022-08-05T13:52:35.924Z,47.64
2022-08-05T13:53:47.860Z,46.42
2022-08-05T13:54:42.908Z,45.76
2022-08-05T13:55:49.257Z,45.83
2022-08-05T13:56:52.013Z,45.23
2022-08-05T13:57:55.219Z,43.67
2022-08-05T13:58:59.605Z,43.93
2022-08-05T14:00:04.521Z,43.69
2022-08-05T14:01:08.640Z,44.12
2022-08-05T14:02:19.751Z,43.29
2022-08-05T14:03:16.874Z,43.79
2022-08-05T14:04:20.057Z,44.92
2022-08-05T14:05:48.144Z,44.87
2022-08-05T14:06:27.246Z,43.69
2022-08-05T14:07:59.681Z,43.63
2022-08-05T14:08:40.979Z,42.86